createdAt,value
2022-12-12T00:00:27.058Z,49.60
2022-12-12T00:03:14.968Z,46.27
2022-12-12T00:05:42.686Z,51.27
2022-12-12T00:08:10.543Z,49.43
2022-12-12T00:10:38.165Z,39.27
2022-12-12T00:13:06.027Z,56.30
2022-12-12T00:15:33.603Z,45.07
2022-12-12T00:18:01.677Z,34.33
2022-12-12T00:20:29.279Z,34.87
2022-12-12T00:22:57.218Z,41.33
2022-12-12T00:25:24.768Z,42.07
2022-12-12T00:27:52.608Z,45.47
2022-12-12T00:30:20.311Z,41.63
2022-12-12T00:32:48.161Z,37.33
2022-12-12T00:35:15.806Z,38.23
2022-12-12T00:37:43.706Z,37.30
2022-12-12T00:40:11.642Z,38.03
2022-12-12T00:42:39.510Z,36.33
2022-12-12T00:45:07.294Z,46.27
2022-12-12T00:47:35.172Z,38.67
2022-12-12T00:50:02.726Z,38.57
2022-12-12T00:52:30.864Z,42.80
2022-12-12T00:54:58.401Z,42.87
2022-12-12T00:57:26.384Z,48.03
2022-12-12T00:59:53.936Z,34.83
2022-12-12T01:02:27.816Z,37.73
2022-12-12T01:04:55.811Z,30.93
2022-12-12T01:07:23.757Z,27.33
2022-12-12T01:09:51.417Z,37.70
2022-12-12T01:12:19.245Z,38.97
2022-12-12T01:14:46.890Z,34.43
2022-12-12T01:17:14.757Z,41.73
2022-12-12T01:19:42.377Z,30.73
2022-12-12T01:22:10.294Z,40.13
2022-12-12T01:24:37.845Z,39.40
2022-12-12T01:27:06.527Z,42.77
2022-12-12T01:29:34.849Z,35.50
2022-12-12T01:32:02.670Z,26.00
2022-12-12T01:34:30.151Z,42.03
2022-12-12T01:36:58.045Z,35.87
2022-12-12T01:39:25.784Z,31.83
2022-12-12T01:41:53.571Z,34.97
2022-12-12T01:44:40.033Z,36.23
2022-12-12T01:47:07.928Z,31.97
2022-12-12T01:49:35.650Z,35.10
2022-12-12T01:52:08.123Z,38.80
2022-12-12T01:54:38.014Z,32.93
2022-12-12T01:57:07.587Z,39.60
2022-12-12T01:59:35.449Z,34.93
2022-12-12T02:02:03.561Z,37.30
2022-12-12T02:04:31.319Z,33.50
2022-12-12T02:06:59.234Z,31.37
2022-12-12T02:09:27.761Z,34.63
2022-12-12T02:11:56.889Z,32.50
2022-12-12T02:14:39.148Z,46.20
2022-12-12T02:17:29.955Z,29.20
2022-12-12T02:20:12.769Z,34.47
2022-12-12T02:22:40.613Z,44.03
2022-12-12T02:25:22.247Z,42.73
2022-12-12T02:28:02.522Z,36.80
2022-12-12T02:30:48.649Z,36.53
2022-12-12T02:33:16.462Z,26.30
2022-12-12T02:35:50.353Z,36.13
2022-12-12T02:38:41.303Z,35.90
2022-12-12T02:41:18.649Z,38.40
2022-12-12T02:43:55.627Z,43.63
2022-12-12T02:46:33.675Z,37.20
2022-12-12T02:49:04.291Z,36.60
2022-12-12T02:51:32.716Z,38.33
2022-12-12T02:54:01.125Z,42.43
2022-12-12T02:56:49.020Z,39.20
2022-12-12T02:59:28.611Z,41.37
2022-12-12T03:02:11.481Z,34.10
2022-12-12T03:05:07.196Z,37.30
2022-12-12T03:07:49.830Z,26.57
2022-12-12T03:10:36.520Z,36.80
2022-12-12T03:13:13.379Z,29.30
2022-12-12T03:15:59.895Z,33.90
2022-12-12T03:18:32.856Z,39.40
2022-12-12T03:21:22.621Z,44.20
2022-12-12T03:23:51.757Z,36.57
2022-12-12T03:26:40.781Z,40.70
2022-12-12T03:29:11.474Z,48.87
2022-12-12T03:31:41.282Z,46.60
2022-12-12T03:34:12.927Z,44.03
2022-12-12T03:39:17.742Z,47.23
2022-12-12T03:41:52.073Z,40.20
2022-12-12T03:44:26.906Z,30.57
2022-12-12T03:46:57.241Z,33.13
2022-12-12T03:49:27.525Z,41.43
2022-12-12T03:52:03.650Z,36.27
2022-12-12T03:54:51.405Z,36.47
2022-12-12T03:57:39.556Z,39.83
2022-12-12T04:00:08.964Z,40.00
2022-12-12T04:02:47.117Z,38.27
2022-12-12T04:05:22.653Z,41.10
2022-12-12T04:08:17.203Z,44.10
2022-12-12T04:11:06.770Z,45.90
2022-12-12T04:13:46.657Z,34.57
2022-12-12T04:16:19.536Z,31.90
2022-12-12T04:18:56.330Z,39.90
2022-12-12T04:21:48.752Z,41.00
2022-12-12T04:24:22.827Z,64.30
2022-12-12T04:27:07.792Z,46.10
2022-12-12T04:29:41.704Z,63.87
2022-12-12T04:32:29.763Z,42.27
2022-12-12T04:35:00.567Z,61.10
2022-12-12T04:37:36.699Z,43.23
2022-12-12T04:40:07.301Z,66.10
2022-12-12T04:42:37.992Z,57.27
2022-12-12T04:45:16.953Z,44.40
2022-12-12T04:47:46.449Z,56.30
2022-12-12T04:50:14.779Z,44.10
2022-12-12T04:52:42.907Z,56.93
2022-12-12T04:55:14.031Z,47.93
2022-12-12T04:57:43.766Z,60.42
2022-12-12T05:00:13.151Z,36.97
2022-12-12T05:02:46.855Z,32.07
2022-12-12T05:05:15.280Z,45.07
2022-12-12T05:08:04.461Z,37.20
2022-12-12T05:10:32.541Z,46.40
2022-12-12T05:13:00.979Z,38.10
2022-12-12T05:15:29.817Z,50.27
2022-12-12T05:18:00.781Z,64.27
2022-12-12T05:20:28.770Z,48.95
2022-12-12T05:22:56.402Z,31.73
2022-12-12T05:25:24.248Z,31.73
2022-12-12T05:27:51.834Z,49.63
2022-12-12T05:30:19.705Z,39.23
2022-12-12T05:32:48.871Z,42.57
2022-12-12T05:35:17.018Z,40.17
2022-12-12T05:37:49.902Z,43.87
2022-12-12T05:40:20.009Z,36.70
2022-12-12T05:42:48.202Z,38.77
2022-12-12T05:45:16.251Z,31.33
2022-12-12T05:47:43.812Z,44.27
2022-12-12T05:50:11.623Z,37.43
2022-12-12T05:52:39.247Z,33.43
2022-12-12T05:55:07.454Z,40.77
2022-12-12T05:57:35.095Z,39.67
2022-12-12T06:00:03.218Z,39.30
2022-12-12T06:02:32.896Z,38.97
2022-12-12T06:05:01.325Z,41.13
2022-12-12T06:07:29.899Z,33.47
2022-12-12T06:09:57.781Z,44.23
2022-12-12T06:12:25.421Z,35.67
2022-12-12T06:14:53.435Z,31.63
2022-12-12T06:17:21.343Z,31.23
2022-12-12T06:19:49.411Z,41.60
2022-12-12T06:22:16.968Z,38.43
2022-12-12T06:24:44.995Z,34.37
2022-12-12T06:27:12.682Z,39.37
2022-12-12T06:29:40.571Z,34.27
2022-12-12T06:32:08.102Z,39.07
2022-12-12T06:34:35.934Z,41.03
2022-12-12T06:37:05.149Z,34.07
2022-12-12T06:39:33.108Z,34.97
2022-12-12T06:42:01.907Z,39.07
2022-12-12T06:44:32.910Z,36.87
2022-12-12T06:47:01.802Z,30.20
2022-12-12T06:49:29.722Z,29.27
2022-12-12T06:51:57.342Z,34.07
2022-12-12T06:54:26.320Z,39.77
2022-12-12T06:56:53.960Z,30.33
2022-12-12T06:59:22.151Z,28.10
2022-12-12T07:01:49.914Z,32.37
2022-12-12T07:04:18.116Z,27.83
2022-12-12T07:06:45.723Z,42.77
2022-12-12T07:09:13.735Z,59.40
2022-12-12T07:11:41.767Z,45.30
2022-12-12T07:14:10.822Z,40.67
2022-12-12T07:16:38.454Z,31.13
2022-12-12T07:19:06.510Z,33.33
2022-12-12T07:21:34.067Z,35.13
2022-12-12T07:24:01.945Z,34.77
2022-12-12T07:26:29.589Z,24.83
2022-12-12T07:28:57.487Z,34.43
2022-12-12T07:31:26.567Z,35.13
2022-12-12T07:33:54.938Z,33.87
2022-12-12T07:36:22.834Z,34.87
2022-12-12T07:38:51.010Z,28.73
2022-12-12T07:41:20.562Z,30.40
2022-12-12T07:43:49.889Z,31.40
2022-12-12T07:46:20.399Z,30.37
2022-12-12T07:48:48.632Z,31.90
2022-12-12T07:51:16.913Z,37.97
2022-12-12T07:53:44.923Z,36.73
2022-12-12T07:56:14.118Z,34.03
2022-12-12T07:58:42.295Z,31.93
2022-12-12T08:01:17.892Z,30.73
2022-12-12T08:03:46.245Z,38.80
2022-12-12T08:06:14.119Z,34.93
2022-12-12T08:08:42.046Z,39.00
2022-12-12T08:11:10.680Z,34.10
2022-12-12T08:13:39.636Z,34.47
2022-12-12T08:16:08.696Z,39.40
2022-12-12T08:18:36.554Z,37.23
2022-12-12T08:21:07.664Z,31.83
2022-12-12T08:23:35.523Z,39.50
2022-12-12T08:26:14.224Z,36.20
2022-12-12T08:28:44.815Z,34.70
2022-12-12T08:31:16.015Z,37.83
2022-12-12T08:33:44.292Z,33.85
2022-12-12T08:36:32.145Z,32.33
2022-12-12T08:39:15.915Z,33.00
2022-12-12T08:41:44.868Z,28.43
2022-12-12T08:44:13.481Z,37.73
2022-12-12T08:46:41.418Z,38.73
2022-12-12T08:49:09.991Z,32.27
2022-12-12T08:51:40.897Z,37.23
2022-12-12T08:54:08.923Z,37.40
2022-12-12T08:56:36.429Z,33.60
2022-12-12T08:59:04.746Z,38.27
2022-12-12T09:01:32.538Z,42.77
2022-12-12T09:04:00.496Z,37.17
2022-12-12T09:06:28.321Z,41.00
2022-12-12T09:08:57.411Z,38.90
2022-12-12T09:11:25.395Z,38.27
2022-12-12T09:13:53.589Z,37.33
2022-12-12T09:16:22.183Z,41.00
2022-12-12T09:18:50.230Z,38.57
2022-12-12T09:21:18.371Z,29.77
2022-12-12T09:23:48.274Z,32.83
2022-12-12T09:26:15.866Z,29.87
2022-12-12T09:28:43.677Z,31.97
2022-12-12T09:31:12.428Z,34.77
2022-12-12T09:33:40.514Z,32.23
2022-12-12T09:36:08.869Z,34.57
2022-12-12T09:38:37.034Z,32.90
2022-12-12T09:41:11.053Z,39.67
2022-12-12T09:43:47.550Z,32.50
2022-12-12T09:46:19.815Z,34.00
2022-12-12T09:48:47.938Z,34.30
2022-12-12T09:51:15.404Z,35.23
2022-12-12T09:53:45.961Z,37.37
2022-12-12T09:56:28.289Z,33.10
2022-12-12T09:59:22.306Z,32.15
2022-12-12T10:01:49.885Z,35.30
2022-12-12T10:04:36.798Z,37.10
2022-12-12T10:07:11.578Z,37.87
2022-12-12T10:09:40.487Z,33.40
2022-12-12T10:12:11.940Z,35.90
2022-12-12T10:14:49.248Z,36.90
2022-12-12T10:17:18.216Z,40.80
2022-12-12T10:19:54.359Z,42.93
2022-12-12T10:22:31.478Z,33.63
2022-12-12T10:25:04.288Z,40.73
2022-12-12T10:27:31.943Z,38.10
2022-12-12T10:30:05.382Z,37.73
2022-12-12T10:32:35.819Z,38.10
2022-12-12T10:35:33.811Z,40.87
2022-12-12T10:38:10.339Z,38.07
2022-12-12T10:40:57.005Z,36.97
2022-12-12T10:43:28.710Z,30.37
2022-12-12T10:45:56.685Z,44.83
2022-12-12T10:48:24.484Z,28.77
2022-12-12T10:50:55.013Z,30.30
2022-12-12T10:53:22.818Z,27.90
2022-12-12T10:55:56.156Z,33.87
2022-12-12T10:58:27.545Z,34.40
2022-12-12T11:01:02.566Z,33.38
2022-12-12T11:03:33.789Z,32.37
2022-12-12T11:06:04.696Z,32.10
2022-12-12T11:08:33.744Z,32.13
2022-12-12T11:11:01.734Z,32.60
2022-12-12T11:13:29.936Z,32.40
2022-12-12T11:15:59.754Z,35.03
2022-12-12T11:18:29.164Z,33.67
2022-12-12T11:20:59.796Z,37.70
2022-12-12T11:23:28.881Z,34.40
2022-12-12T11:26:01.367Z,36.73
2022-12-12T11:28:32.072Z,37.17
2022-12-12T11:31:02.793Z,34.03
2022-12-12T11:33:39.817Z,36.17
2022-12-12T11:36:08.343Z,36.40
2022-12-12T11:38:46.188Z,32.67
2022-12-12T11:41:14.108Z,31.40
2022-12-12T11:43:50.715Z,34.03
2022-12-12T11:46:19.847Z,39.10
2022-12-12T11:48:47.717Z,36.87
2022-12-12T11:51:30.248Z,27.73
2022-12-12T11:53:58.843Z,30.60
2022-12-12T11:56:41.750Z,30.73
2022-12-12T11:59:17.559Z,33.60
2022-12-12T12:01:57.542Z,32.20
2022-12-12T12:04:31.999Z,37.93
2022-12-12T12:07:05.753Z,31.77
2022-12-12T12:09:36.267Z,38.47
2022-12-12T12:12:12.206Z,27.53
2022-12-12T12:14:55.434Z,33.03
2022-12-12T12:17:24.594Z,34.30
2022-12-12T12:19:55.025Z,29.77
2022-12-12T12:22:30.675Z,30.60
2022-12-12T12:25:01.294Z,29.07
2022-12-12T12:27:32.214Z,31.10
2022-12-12T12:29:59.734Z,27.53
2022-12-12T12:32:43.867Z,29.73
2022-12-12T12:35:21.497Z,30.30
2022-12-12T12:37:53.852Z,27.53
2022-12-12T12:40:34.315Z,25.27
2022-12-12T12:43:05.434Z,24.77
2022-12-12T12:45:35.895Z,29.43
2022-12-12T12:48:25.229Z,27.43
2022-12-12T12:50:55.927Z,28.07
2022-12-12T12:53:34.253Z,28.10
2022-12-12T12:56:04.606Z,25.03
2022-12-12T12:58:35.896Z,29.00
2022-12-12T13:01:06.150Z,33.30
2022-12-12T13:03:48.997Z,32.67
2022-12-12T13:06:24.037Z,37.20
2022-12-12T13:08:58.779Z,35.17
2022-12-12T13:11:33.573Z,31.40
2022-12-12T13:14:06.262Z,37.83
2022-12-12T13:16:33.884Z,40.03
2022-12-12T13:19:35.747Z,37.37
2022-12-12T13:22:16.774Z,36.08
2022-12-12T13:24:48.491Z,35.35
2022-12-12T13:27:26.253Z,37.03
2022-12-12T13:29:57.199Z,39.50
2022-12-12T13:32:44.030Z,27.17
2022-12-12T13:35:14.039Z,49.80
2022-12-12T13:37:54.755Z,47.13
2022-12-12T13:40:24.663Z,31.93
2022-12-12T13:42:53.982Z,45.33
2022-12-12T13:45:34.279Z,40.50
2022-12-12T13:48:04.589Z,45.60
2022-12-12T13:50:32.571Z,46.33
2022-12-12T13:53:09.186Z,42.10
2022-12-12T13:55:37.838Z,37.53
2022-12-12T13:58:10.259Z,31.43
2022-12-12T14:00:38.055Z,47.53
2022-12-12T14:03:11.898Z,53.73
2022-12-12T14:05:48.886Z,43.20
2022-12-12T14:08:16.880Z,50.33
2022-12-12T14:10:50.603Z,51.53
2022-12-12T14:13:19.906Z,44.03
2022-12-12T14:15:48.963Z,43.73
2022-12-12T14:18:30.362Z,40.43
2022-12-12T14:21:02.419Z,36.20
2022-12-12T14:23:32.219Z,43.75
2022-12-12T14:26:00.453Z,45.43
2022-12-12T14:28:32.496Z,33.77
2022-12-12T14:31:06.594Z,56.17
2022-12-12T14:33:37.411Z,42.03
2022-12-12T14:36:30.072Z,53.55
2022-12-12T14:39:19.228Z,50.13
2022-12-12T14:41:47.607Z,41.27
2022-12-12T14:44:36.925Z,45.53
2022-12-12T14:47:10.214Z,68.65
2022-12-12T14:49:37.830Z,89.53
2022-12-12T14:52:05.792Z,85.60
2022-12-12T14:54:33.521Z,55.80
2022-12-12T14:57:01.573Z,50.60
2022-12-12T14:59:33.497Z,44.80
2022-12-12T15:02:06.506Z,35.70
2022-12-12T15:04:38.731Z,44.57
2022-12-12T15:07:08.206Z,36.17
2022-12-12T15:09:37.632Z,40.50
2022-12-12T15:12:09.133Z,50.30
2022-12-12T15:14:37.771Z,52.20
2022-12-12T15:17:05.859Z,56.60
2022-12-12T15:19:37.006Z,59.07
2022-12-12T15:22:10.350Z,76.60
2022-12-12T15:24:39.358Z,53.43
2022-12-12T15:27:07.562Z,53.53
2022-12-12T15:29:36.033Z,56.17
2022-12-12T15:32:08.783Z,57.93
2022-12-12T15:34:43.285Z,61.73
2022-12-12T15:37:21.294Z,49.47
2022-12-12T15:40:18.422Z,57.33
2022-12-12T15:42:47.974Z,54.17
2022-12-12T15:45:20.069Z,51.60
2022-12-12T15:47:47.996Z,60.70
2022-12-12T15:50:20.857Z,43.53
2022-12-12T15:52:59.440Z,49.37
2022-12-12T15:55:27.127Z,52.40
2022-12-12T15:57:55.166Z,60.43
2022-12-12T16:00:23.021Z,60.87
2022-12-12T16:02:58.093Z,64.43
2022-12-12T16:05:30.245Z,63.33
2022-12-12T16:08:16.720Z,57.10
2022-12-12T16:10:54.377Z,51.30
2022-12-12T16:13:22.426Z,56.87
2022-12-12T16:15:49.943Z,41.73
2022-12-12T16:18:19.134Z,44.63
2022-12-12T16:20:51.549Z,53.93
2022-12-12T16:23:22.232Z,57.00
2022-12-12T16:25:50.695Z,40.07
2022-12-12T16:28:25.622Z,57.20
2022-12-12T16:31:01.277Z,57.60
2022-12-12T16:33:29.998Z,42.93
2022-12-12T16:35:58.759Z,61.03
2022-12-12T16:38:28.186Z,57.27
2022-12-12T16:40:56.666Z,47.73
2022-12-12T16:43:24.945Z,42.60
2022-12-12T16:45:54.095Z,48.63
2022-12-12T16:48:26.752Z,62.83
2022-12-12T16:50:58.887Z,52.00
2022-12-12T16:53:27.224Z,63.53
2022-12-12T16:55:54.821Z,55.80
2022-12-12T16:58:22.994Z,41.50
2022-12-12T17:00:52.800Z,54.27
2022-12-12T17:03:21.341Z,52.43
2022-12-12T17:05:49.451Z,41.50
2022-12-12T17:08:18.205Z,56.10
2022-12-12T17:10:47.020Z,53.60
2022-12-12T17:13:16.467Z,52.37
2022-12-12T17:15:44.092Z,228.23
2022-12-12T17:18:12.071Z,77.43
2022-12-12T17:20:40.041Z,40.20
2022-12-12T17:25:58.860Z,57.70
2022-12-12T17:28:30.981Z,102.37
2022-12-12T17:30:58.669Z,79.90
2022-12-12T17:33:26.856Z,59.43
2022-12-12T17:36:01.856Z,50.77
2022-12-12T17:38:30.539Z,56.97
2022-12-12T17:40:58.729Z,61.33
2022-12-12T17:43:26.763Z,57.03
2022-12-12T17:46:01.296Z,54.17
2022-12-12T17:48:30.310Z,60.00
2022-12-12T17:50:59.022Z,137.57
2022-12-12T17:53:27.729Z,254.07
2022-12-12T17:56:01.703Z,136.70
2022-12-12T17:58:36.857Z,134.87
2022-12-12T18:01:12.487Z,475.93
2022-12-12T18:03:40.782Z,411.80
2022-12-12T18:06:09.385Z,413.03
2022-12-12T18:08:38.979Z,97.80
2022-12-12T18:11:09.842Z,65.80
2022-12-12T18:13:38.877Z,84.82
2022-12-12T18:16:06.962Z,99.77
2022-12-12T18:18:35.152Z,65.23
2022-12-12T18:21:10.545Z,77.30
2022-12-12T18:23:40.741Z,60.90
2022-12-12T18:26:18.601Z,59.30
2022-12-12T18:28:50.949Z,61.95
2022-12-12T18:31:18.545Z,59.27
2022-12-12T18:33:47.266Z,60.07
2022-12-12T18:36:19.668Z,59.17
2022-12-12T18:38:48.187Z,61.87
2022-12-12T18:41:16.168Z,62.83
2022-12-12T18:43:44.334Z,63.80
2022-12-12T18:46:16.055Z,56.87
2022-12-12T18:48:45.276Z,60.00
2022-12-12T18:51:14.055Z,55.23
2022-12-12T18:53:42.401Z,72.30
2022-12-12T18:56:10.960Z,65.17
2022-12-12T18:58:39.254Z,69.60
2022-12-12T19:01:07.782Z,250.27
2022-12-12T19:03:36.071Z,118.27
2022-12-12T19:06:07.654Z,170.93
2022-12-12T19:08:36.545Z,159.23
2022-12-12T19:11:04.189Z,60.13
2022-12-12T19:13:32.111Z,152.30
2022-12-12T19:16:06.284Z,58.13
2022-12-12T19:18:34.201Z,57.37
2022-12-12T19:21:05.730Z,98.40
2022-12-12T19:23:35.119Z,50.73
2022-12-12T19:26:13.196Z,65.17
2022-12-12T19:28:41.158Z,47.83
2022-12-12T19:31:10.319Z,72.70
2022-12-12T19:33:38.487Z,82.37
2022-12-12T19:36:09.995Z,45.63
2022-12-12T19:38:38.064Z,79.10
2022-12-12T19:41:06.526Z,57.13
2022-12-12T19:43:34.597Z,57.17
2022-12-12T19:46:03.720Z,62.47
2022-12-12T19:48:32.584Z,54.70
2022-12-12T19:51:10.835Z,50.80
2022-12-12T19:53:41.800Z,48.53
2022-12-12T19:56:12.268Z,37.87
2022-12-12T19:58:40.361Z,40.83
2022-12-12T20:01:08.990Z,33.17
2022-12-12T20:03:36.895Z,40.27
2022-12-12T20:06:05.661Z,41.70
2022-12-12T20:08:34.428Z,49.87
2022-12-12T20:11:06.569Z,44.50
2022-12-12T20:13:34.632Z,34.77
2022-12-12T20:16:06.674Z,37.47
2022-12-12T20:18:34.789Z,39.37
2022-12-12T20:21:03.458Z,37.33
2022-12-12T20:23:32.398Z,34.57
2022-12-12T20:26:02.513Z,35.53
2022-12-12T20:28:30.487Z,27.93
2022-12-12T20:31:08.557Z,27.53
2022-12-12T20:33:36.994Z,28.57
2022-12-12T20:36:05.677Z,26.17
2022-12-12T20:38:34.651Z,28.13
2022-12-12T20:41:02.742Z,32.60
2022-12-12T20:43:30.997Z,45.90
2022-12-12T20:45:58.597Z,33.87
2022-12-12T20:48:26.522Z,32.33
2022-12-12T20:50:58.191Z,32.10
2022-12-12T20:55:54.770Z,33.53
2022-12-12T20:58:22.645Z,38.27
2022-12-12T21:00:50.278Z,42.13
2022-12-12T21:03:19.471Z,42.73
2022-12-12T21:05:47.026Z,50.83
2022-12-12T21:08:15.617Z,36.27
2022-12-12T21:10:43.182Z,27.43
2022-12-12T21:13:11.130Z,34.60
2022-12-12T21:15:38.791Z,50.57
2022-12-12T21:18:06.775Z,29.63
2022-12-12T21:20:34.357Z,28.67
2022-12-12T21:23:02.212Z,34.50
2022-12-12T21:25:29.791Z,34.27
2022-12-12T21:27:58.435Z,33.70
2022-12-12T21:30:26.473Z,36.80
2022-12-12T21:32:55.114Z,33.47
2022-12-12T21:35:24.555Z,38.67
2022-12-12T21:37:52.402Z,37.07
2022-12-12T21:40:21.662Z,33.30
2022-12-12T21:42:49.514Z,33.97
2022-12-12T21:45:17.439Z,31.03
2022-12-12T21:47:45.246Z,27.93
2022-12-12T21:50:12.916Z,24.87
2022-12-12T21:52:40.742Z,28.73
2022-12-12T21:55:08.766Z,33.07
2022-12-12T21:57:36.675Z,25.50
2022-12-12T22:00:04.450Z,31.20
2022-12-12T22:02:40.369Z,31.13
2022-12-12T22:05:08.287Z,27.83
2022-12-12T22:07:36.116Z,27.10
2022-12-12T22:10:10.854Z,29.83
2022-12-12T22:12:39.467Z,25.47
2022-12-12T22:15:07.622Z,25.40
2022-12-12T22:17:35.404Z,25.83
2022-12-12T22:20:02.949Z,23.07
2022-12-12T22:22:30.850Z,26.00
2022-12-12T22:24:58.585Z,29.67
2022-12-12T22:27:26.394Z,19.70
2022-12-12T22:29:54.013Z,23.17
2022-12-12T22:32:21.862Z,23.30
2022-12-12T22:34:49.449Z,23.70
2022-12-12T22:37:17.266Z,24.07
2022-12-12T22:39:44.893Z,22.43
2022-12-12T22:42:12.902Z,24.60
2022-12-12T22:44:40.506Z,30.30
2022-12-12T22:47:08.375Z,26.93
2022-12-12T22:49:36.104Z,30.40
2022-12-12T22:52:04.006Z,28.30
2022-12-12T22:54:31.592Z,24.50
2022-12-12T22:56:59.436Z,20.23
2022-12-12T22:59:27.363Z,26.23
2022-12-12T23:01:55.297Z,26.03
2022-12-12T23:04:22.931Z,23.83
2022-12-12T23:06:50.801Z,25.20
2022-12-12T23:09:22.621Z,26.43
2022-12-12T23:11:50.576Z,26.37
2022-12-12T23:14:19.758Z,24.10
2022-12-12T23:16:48.037Z,19.13
2022-12-12T23:19:17.230Z,23.90
2022-12-12T23:21:45.532Z,27.53
2022-12-12T23:24:13.569Z,24.33
2022-12-12T23:26:41.738Z,20.57
2022-12-12T23:29:10.068Z,24.10
2022-12-12T23:31:38.975Z,26.93
2022-12-12T23:34:08.852Z,27.97
2022-12-12T23:36:38.089Z,31.00
2022-12-12T23:39:06.498Z,23.53
2022-12-12T23:41:36.467Z,28.93
2022-12-12T23:44:04.336Z,24.57
2022-12-12T23:46:32.493Z,25.30
2022-12-12T23:49:01.491Z,30.67
2022-12-12T23:51:30.589Z,27.63
2022-12-12T23:53:58.907Z,22.30
2022-12-12T23:56:27.450Z,28.23
2022-12-12T23:58:55.784Z,26.53
